createdAt,value
2023-02-11T00:00:18.826Z,985.04
2023-02-11T00:01:18.840Z,985.09
2023-02-11T00:02:18.860Z,985.03
2023-02-11T00:03:18.833Z,985.01
2023-02-11T00:04:18.774Z,984.99
2023-02-11T00:05:18.746Z,984.91
2023-02-11T00:06:18.743Z,984.94
2023-02-11T00:07:18.700Z,984.96
2023-02-11T00:08:18.674Z,984.92
2023-02-11T00:09:18.656Z,984.90
2023-02-11T00:10:18.648Z,984.94
2023-02-11T00:11:18.676Z,984.85
2023-02-11T00:12:18.622Z,984.85
2023-02-11T00:13:18.581Z,984.85
2023-02-11T00:14:18.564Z,984.89
2023-02-11T00:15:18.580Z,984.86
2023-02-11T00:16:18.599Z,984.77
2023-02-11T00:17:18.531Z,984.76
2023-02-11T00:18:18.514Z,984.75
2023-02-11T00:19:18.519Z,984.69
2023-02-11T00:20:18.475Z,984.70
2023-02-11T00:21:18.501Z,984.71
2023-02-11T00:22:18.445Z,984.70
2023-02-11T00:23:18.424Z,984.71
2023-02-11T00:24:18.429Z,984.73
2023-02-11T00:25:18.389Z,984.67
2023-02-11T00:26:18.435Z,984.59
2023-02-11T00:27:18.353Z,984.62
2023-02-11T00:28:18.388Z,984.63
2023-02-11T00:29:18.330Z,984.66
2023-02-11T00:30:18.310Z,984.61
2023-02-11T00:31:18.390Z,984.57
2023-02-11T00:32:18.286Z,984.51
2023-02-11T00:33:18.261Z,984.50
2023-02-11T00:34:18.235Z,984.46
2023-02-11T00:35:18.212Z,984.39
2023-02-11T00:36:18.251Z,984.46
2023-02-11T00:37:18.195Z,984.36
2023-02-11T00:38:18.170Z,984.38
2023-02-11T00:39:18.144Z,984.49
2023-02-11T00:40:18.148Z,984.44
2023-02-11T00:41:18.153Z,984.35
2023-02-11T00:42:18.083Z,984.39
2023-02-11T00:43:18.101Z,984.41
2023-02-11T00:44:18.051Z,984.46
2023-02-11T00:45:18.026Z,984.45
2023-02-11T00:46:18.101Z,984.39
2023-02-11T00:47:17.989Z,984.41
2023-02-11T00:48:17.980Z,984.38
2023-02-11T00:49:17.977Z,984.39
2023-02-11T00:50:17.966Z,984.36
2023-02-11T00:51:17.971Z,984.44
2023-02-11T00:52:18.775Z,984.36
2023-02-11T00:53:17.917Z,984.41
2023-02-11T00:54:17.875Z,984.34
2023-02-11T00:55:17.879Z,984.35
2023-02-11T00:56:18.891Z,984.35
2023-02-11T00:57:17.832Z,984.25
2023-02-11T00:58:17.812Z,984.30
2023-02-11T00:59:17.791Z,984.31
2023-02-11T01:00:17.780Z,984.31
2023-02-11T01:01:18.015Z,984.37
2023-02-11T01:02:17.751Z,984.27
2023-02-11T01:03:17.730Z,984.21
2023-02-11T01:04:17.713Z,984.17
2023-02-11T01:05:17.760Z,984.30
2023-02-11T01:06:17.681Z,984.24
2023-02-11T01:07:17.698Z,984.29
2023-02-11T01:08:17.642Z,984.39
2023-02-11T01:09:17.620Z,984.43
2023-02-11T01:10:17.624Z,984.33
2023-02-11T01:11:17.601Z,984.38
2023-02-11T01:12:17.615Z,984.40
2023-02-11T01:13:17.563Z,984.38
2023-02-11T01:14:17.554Z,984.37
2023-02-11T01:15:17.551Z,984.43
2023-02-11T01:16:17.602Z,984.39
2023-02-11T01:17:17.559Z,984.36
2023-02-11T01:18:17.507Z,984.32
2023-02-11T01:19:17.478Z,984.33
2023-02-11T01:20:17.447Z,984.41
2023-02-11T01:21:17.436Z,984.31
2023-02-11T01:22:17.519Z,984.36
2023-02-11T01:23:17.426Z,984.34
2023-02-11T01:24:17.377Z,984.39
2023-02-11T01:25:17.386Z,984.46
2023-02-11T01:26:17.359Z,984.45
2023-02-11T01:27:17.368Z,984.49
2023-02-11T01:28:17.378Z,984.54
2023-02-11T01:29:17.299Z,984.56
2023-02-11T01:30:17.297Z,984.58
2023-02-11T01:31:17.319Z,984.62
2023-02-11T01:32:17.316Z,984.61
2023-02-11T01:33:17.221Z,984.64
2023-02-11T01:34:17.217Z,984.58
2023-02-11T01:35:17.230Z,984.57
2023-02-11T01:36:17.165Z,984.59
2023-02-11T01:37:17.188Z,984.66
2023-02-11T01:38:17.121Z,984.66
2023-02-11T01:39:17.115Z,984.70
2023-02-11T01:40:17.126Z,984.70
2023-02-11T01:41:17.080Z,984.65
2023-02-11T01:42:17.099Z,984.55
2023-02-11T01:43:17.049Z,984.63
2023-02-11T01:44:17.028Z,984.55
2023-02-11T01:45:17.004Z,984.53
2023-02-11T01:46:17.028Z,984.51
2023-02-11T01:47:17.021Z,984.51
2023-02-11T01:48:16.959Z,984.53
2023-02-11T01:49:16.987Z,984.54
2023-02-11T01:50:16.939Z,984.52
2023-02-11T01:51:17.901Z,984.50
2023-02-11T01:52:16.904Z,984.45
2023-02-11T01:53:16.889Z,984.51
2023-02-11T01:54:16.902Z,984.48
2023-02-11T01:55:16.954Z,984.50
2023-02-11T01:56:16.818Z,984.50
2023-02-11T01:57:16.824Z,984.52
2023-02-11T01:58:16.768Z,984.51
2023-02-11T01:59:16.779Z,984.58
2023-02-11T02:00:16.749Z,984.54
2023-02-11T02:01:16.762Z,984.59
2023-02-11T02:02:16.753Z,984.55
2023-02-11T02:03:16.727Z,984.58
2023-02-11T02:04:17.700Z,984.57
2023-02-11T02:05:16.659Z,984.52
2023-02-11T02:06:16.641Z,984.56
2023-02-11T02:07:16.666Z,984.60
2023-02-11T02:08:16.614Z,984.54
2023-02-11T02:09:16.628Z,984.55
2023-02-11T02:10:16.597Z,984.41
2023-02-11T02:11:16.569Z,984.46
2023-02-11T02:12:16.580Z,984.42
2023-02-11T02:13:16.592Z,984.40
2023-02-11T02:14:16.538Z,984.33
2023-02-11T02:15:16.498Z,984.28
2023-02-11T02:16:50.196Z,984.25
2023-02-11T02:17:16.484Z,984.19
2023-02-11T02:18:16.427Z,984.12
2023-02-11T02:19:16.409Z,984.10
2023-02-11T02:20:16.423Z,984.09
2023-02-11T02:21:16.405Z,984.09
2023-02-11T02:22:16.386Z,984.02
2023-02-11T02:23:16.361Z,984.07
2023-02-11T02:24:16.337Z,984.06
2023-02-11T02:25:16.329Z,984.08
2023-02-11T02:26:16.317Z,984.05
2023-02-11T02:27:16.360Z,984.09
2023-02-11T02:28:16.284Z,984.11
2023-02-11T02:29:16.241Z,984.06
2023-02-11T02:30:16.238Z,984.02
2023-02-11T02:31:16.402Z,983.99
2023-02-11T02:32:16.220Z,983.97
2023-02-11T02:33:22.911Z,983.91
2023-02-11T02:34:18.162Z,983.93
2023-02-11T02:35:16.182Z,983.98
2023-02-11T02:36:16.129Z,983.98
2023-02-11T02:37:16.149Z,983.88
2023-02-11T02:38:16.079Z,983.94
2023-02-11T02:39:16.061Z,983.93
2023-02-11T02:40:16.046Z,983.95
2023-02-11T02:41:16.054Z,983.95
2023-02-11T02:42:16.052Z,983.96
2023-02-11T02:43:16.003Z,983.93
2023-02-11T02:44:15.980Z,983.98
2023-02-11T02:45:15.975Z,984.04
2023-02-11T02:46:15.969Z,984.01
2023-02-11T02:47:16.030Z,983.97
2023-02-11T02:48:15.943Z,983.99
2023-02-11T02:49:15.895Z,983.99
2023-02-11T02:50:15.883Z,984.03
2023-02-11T02:51:15.876Z,983.99
2023-02-11T02:52:15.944Z,983.99
2023-02-11T02:53:15.838Z,984.01
2023-02-11T02:54:15.824Z,984.06
2023-02-11T02:55:15.807Z,983.96
2023-02-11T02:56:15.783Z,983.98
2023-02-11T02:57:15.802Z,984.00
2023-02-11T02:58:15.758Z,984.06
2023-02-11T02:59:15.736Z,984.07
2023-02-11T03:00:15.732Z,984.08
2023-02-11T03:01:15.726Z,984.05
2023-02-11T03:02:15.726Z,984.00
2023-02-11T03:03:15.678Z,984.01
2023-02-11T03:04:15.643Z,983.94
2023-02-11T03:05:15.630Z,983.93
2023-02-11T03:06:15.606Z,983.96
2023-02-11T03:07:16.613Z,983.99
2023-02-11T03:08:15.569Z,983.99
2023-02-11T03:09:15.560Z,983.93
2023-02-11T03:10:15.533Z,983.91
2023-02-11T03:11:15.530Z,983.97
2023-02-11T03:12:15.541Z,983.88
2023-02-11T03:13:15.475Z,983.84
2023-02-11T03:14:15.459Z,983.84
2023-02-11T03:15:15.455Z,983.79
2023-02-11T03:16:15.508Z,983.81
2023-02-11T03:17:15.472Z,983.81
2023-02-11T03:18:15.392Z,983.71
2023-02-11T03:19:15.385Z,983.64
2023-02-11T03:20:15.362Z,983.61
2023-02-11T03:21:15.352Z,983.67
2023-02-11T03:22:15.366Z,983.58
2023-02-11T03:23:15.329Z,983.65
2023-02-11T03:24:16.318Z,983.65
2023-02-11T03:25:15.280Z,983.68
2023-02-11T03:26:15.254Z,983.71
2023-02-11T03:27:15.285Z,983.77
2023-02-11T03:28:15.252Z,983.77
2023-02-11T03:29:15.255Z,983.72
2023-02-11T03:30:15.235Z,983.70
2023-02-11T03:31:15.328Z,983.65
2023-02-11T03:32:15.373Z,983.54
2023-02-11T03:33:15.154Z,983.56
2023-02-11T03:34:15.120Z,983.50
2023-02-11T03:35:15.098Z,983.50
2023-02-11T03:36:15.075Z,983.47
2023-02-11T03:37:15.118Z,983.56
2023-02-11T03:38:15.054Z,983.61
2023-02-11T03:39:15.035Z,983.57
2023-02-11T03:40:15.043Z,983.63
2023-02-11T03:41:15.010Z,983.61
2023-02-11T03:42:15.014Z,983.63
2023-02-11T03:43:14.976Z,983.62
2023-02-11T03:44:14.948Z,983.66
2023-02-11T03:45:14.951Z,983.67
2023-02-11T03:46:14.925Z,983.54
2023-02-11T03:47:14.930Z,983.57
2023-02-11T03:48:14.874Z,983.51
2023-02-11T03:49:14.856Z,983.54
2023-02-11T03:50:14.854Z,983.57
2023-02-11T03:51:15.418Z,983.62
2023-02-11T03:52:14.834Z,983.59
2023-02-11T03:53:14.821Z,983.59
2023-02-11T03:54:14.786Z,983.58
2023-02-11T03:55:14.771Z,983.60
2023-02-11T03:56:14.744Z,983.53
2023-02-11T03:57:14.754Z,983.61
2023-02-11T03:58:14.703Z,983.53
2023-02-11T03:59:14.702Z,983.52
2023-02-11T04:00:14.736Z,983.51
2023-02-11T04:01:14.713Z,983.54
2023-02-11T04:02:14.682Z,983.59
2023-02-11T04:03:14.637Z,983.57
2023-02-11T04:04:14.600Z,983.58
2023-02-11T04:05:14.577Z,983.51
2023-02-11T04:06:14.559Z,983.52
2023-02-11T04:07:14.585Z,983.43
2023-02-11T04:08:14.540Z,983.50
2023-02-11T04:09:14.524Z,983.54
2023-02-11T04:10:14.517Z,983.61
2023-02-11T04:11:14.494Z,983.56
2023-02-11T04:12:14.498Z,983.57
2023-02-11T04:13:14.448Z,983.49
2023-02-11T04:14:14.456Z,983.55
2023-02-11T04:15:14.412Z,983.54
2023-02-11T04:16:14.448Z,983.51
2023-02-11T04:17:14.427Z,983.52
2023-02-11T04:18:14.374Z,983.54
2023-02-11T04:19:14.344Z,983.52
2023-02-11T04:20:14.342Z,983.53
2023-02-11T04:21:14.319Z,983.53
2023-02-11T04:22:14.342Z,983.51
2023-02-11T04:23:14.270Z,983.53
2023-02-11T04:24:14.267Z,983.59
2023-02-11T04:25:14.257Z,983.54
2023-02-11T04:26:14.283Z,983.55
2023-02-11T04:27:14.231Z,983.56
2023-02-11T04:28:14.224Z,983.56
2023-02-11T04:29:14.204Z,983.61
2023-02-11T04:30:14.157Z,983.65
2023-02-11T04:31:14.201Z,983.70
2023-02-11T04:32:14.172Z,983.62
2023-02-11T04:33:14.116Z,983.58
2023-02-11T04:34:14.089Z,983.65
2023-02-11T04:35:14.079Z,983.54
2023-02-11T04:36:14.061Z,983.50
2023-02-11T04:37:14.080Z,983.52
2023-02-11T04:38:14.032Z,983.44
2023-02-11T04:39:14.014Z,983.47
2023-02-11T04:40:13.981Z,983.43
2023-02-11T04:41:13.963Z,983.48
2023-02-11T04:42:13.958Z,983.50
2023-02-11T04:43:13.971Z,983.56
2023-02-11T04:44:13.905Z,983.51
2023-02-11T04:45:13.902Z,983.44
2023-02-11T04:46:13.941Z,983.47
2023-02-11T04:47:13.863Z,983.47
2023-02-11T04:48:13.873Z,983.40
2023-02-11T04:49:13.815Z,983.41
2023-02-11T04:50:13.811Z,983.46
2023-02-11T04:51:13.796Z,983.42
2023-02-11T04:52:13.789Z,983.44
2023-02-11T04:53:13.789Z,983.48
2023-02-11T04:54:13.743Z,983.43
2023-02-11T04:55:13.736Z,983.45
2023-02-11T04:56:13.716Z,983.49
2023-02-11T04:57:13.705Z,983.48
2023-02-11T04:58:13.713Z,983.45
2023-02-11T04:59:13.647Z,983.56
2023-02-11T05:00:13.643Z,983.55
2023-02-11T05:01:13.617Z,983.56
2023-02-11T05:02:13.639Z,983.60
2023-02-11T05:03:13.613Z,983.59
2023-02-11T05:04:13.678Z,983.59
2023-02-11T05:05:13.599Z,983.57
2023-02-11T05:06:13.539Z,983.63
2023-02-11T05:07:13.524Z,983.70
2023-02-11T05:08:13.538Z,983.62
2023-02-11T05:09:13.487Z,983.57
2023-02-11T05:10:13.458Z,983.65
2023-02-11T05:11:13.468Z,983.65
2023-02-11T05:12:13.490Z,983.64
2023-02-11T05:13:13.461Z,983.63
2023-02-11T05:14:13.397Z,983.47
2023-02-11T05:15:13.375Z,983.56
2023-02-11T05:16:13.405Z,983.45
2023-02-11T05:17:13.362Z,983.52
2023-02-11T05:18:13.357Z,983.49
2023-02-11T05:19:13.569Z,983.49
2023-02-11T05:20:13.302Z,983.36
2023-02-11T05:21:13.269Z,983.36
2023-02-11T05:22:13.262Z,983.40
2023-02-11T05:23:13.273Z,983.36
2023-02-11T05:24:13.234Z,983.34
2023-02-11T05:25:13.230Z,983.34
2023-02-11T05:26:13.187Z,983.35
2023-02-11T05:27:13.167Z,983.38
2023-02-11T05:28:13.273Z,983.24
2023-02-11T05:29:13.136Z,983.19
2023-02-11T05:30:13.116Z,983.26
2023-02-11T05:31:13.203Z,983.23
2023-02-11T05:32:13.083Z,983.25
2023-02-11T05:33:13.106Z,983.17
2023-02-11T05:34:13.055Z,983.24
2023-02-11T05:35:13.059Z,983.30
2023-02-11T05:36:13.009Z,983.39
2023-02-11T05:37:14.054Z,983.42
2023-02-11T05:38:13.034Z,983.34
2023-02-11T05:39:12.970Z,983.40
2023-02-11T05:40:12.962Z,983.39
2023-02-11T05:41:12.938Z,983.41
2023-02-11T05:42:12.929Z,983.34
2023-02-11T05:43:12.958Z,983.42
2023-02-11T05:44:12.907Z,983.42
2023-02-11T05:45:12.862Z,983.37
2023-02-11T05:46:12.894Z,983.43
2023-02-11T05:47:12.825Z,983.43
2023-02-11T05:48:12.829Z,983.29
2023-02-11T05:49:12.804Z,983.42
2023-02-11T05:50:12.787Z,983.47
2023-02-11T05:51:12.771Z,983.48
2023-02-11T05:52:12.728Z,983.47
2023-02-11T05:53:12.762Z,983.53
2023-02-11T05:54:12.717Z,983.47
2023-02-11T05:55:12.703Z,983.45
2023-02-11T05:56:12.687Z,983.50
2023-02-11T05:57:12.693Z,983.48
2023-02-11T05:58:12.694Z,983.54
2023-02-11T05:59:12.634Z,983.57
2023-02-11T06:00:12.608Z,983.54
2023-02-11T06:01:12.621Z,983.58
2023-02-11T06:02:12.600Z,983.55
2023-02-11T06:03:12.698Z,983.51
2023-02-11T06:04:12.550Z,983.49
2023-02-11T06:05:12.554Z,983.41
2023-02-11T06:06:12.494Z,983.46
2023-02-11T06:07:12.470Z,983.44
2023-02-11T06:08:12.513Z,983.43
2023-02-11T06:09:12.516Z,983.42
2023-02-11T06:10:12.432Z,983.49
2023-02-11T06:11:12.423Z,983.40
2023-02-11T06:12:12.390Z,983.38
2023-02-11T06:13:12.489Z,983.38
2023-02-11T06:14:12.389Z,983.42
2023-02-11T06:15:12.354Z,983.39
2023-02-11T06:16:12.358Z,983.41
2023-02-11T06:17:14.618Z,983.48
2023-02-11T06:18:12.317Z,983.41
2023-02-11T06:19:12.277Z,983.47
2023-02-11T06:20:12.247Z,983.47
2023-02-11T06:21:12.231Z,983.47
2023-02-11T06:22:12.227Z,983.57
2023-02-11T06:23:12.216Z,983.55
2023-02-11T06:24:13.203Z,983.62
2023-02-11T06:25:12.161Z,983.56
2023-02-11T06:26:12.146Z,983.60
2023-02-11T06:27:12.160Z,983.58
2023-02-11T06:28:12.215Z,983.57
2023-02-11T06:29:12.093Z,983.61
2023-02-11T06:30:12.062Z,983.57
2023-02-11T06:31:12.223Z,983.59
2023-02-11T06:32:33.585Z,983.59
2023-02-11T06:33:14.058Z,983.56
2023-02-11T06:34:12.004Z,983.60
2023-02-11T06:35:12.489Z,983.63
2023-02-11T06:36:12.969Z,983.62
2023-02-11T06:37:11.968Z,983.61
2023-02-11T06:38:11.974Z,983.59
2023-02-11T06:39:11.973Z,983.62
2023-02-11T06:40:11.933Z,983.59
2023-02-11T06:41:11.889Z,983.57
2023-02-11T06:42:11.883Z,983.56
2023-02-11T06:43:11.879Z,983.54
2023-02-11T06:44:11.839Z,983.58
2023-02-11T06:45:11.807Z,983.64
2023-02-11T06:46:11.811Z,983.61
2023-02-11T06:47:11.794Z,983.62
2023-02-11T06:48:11.871Z,983.60
2023-02-11T06:49:11.751Z,983.56
2023-02-11T06:50:11.731Z,983.57
2023-02-11T06:51:11.746Z,983.62
2023-02-11T06:52:11.687Z,983.57
2023-02-11T06:53:11.704Z,983.63
2023-02-11T06:54:11.659Z,983.63
2023-02-11T06:55:11.638Z,983.65
2023-02-11T06:56:11.670Z,983.73
2023-02-11T06:57:11.622Z,983.66
2023-02-11T06:58:11.633Z,983.69
2023-02-11T06:59:11.584Z,983.72
2023-02-11T07:00:11.555Z,983.73
2023-02-11T07:01:11.581Z,983.73
2023-02-11T07:02:11.641Z,983.78
2023-02-11T07:03:11.546Z,983.77
2023-02-11T07:04:11.480Z,983.75
2023-02-11T07:05:11.469Z,983.76
2023-02-11T07:06:11.465Z,983.84
2023-02-11T07:07:11.427Z,983.82
2023-02-11T07:08:11.560Z,983.80
2023-02-11T07:09:11.423Z,983.79
2023-02-11T07:10:11.383Z,983.71
2023-02-11T07:11:11.375Z,983.73
2023-02-11T07:12:11.375Z,983.77
2023-02-11T07:13:11.374Z,983.71
2023-02-11T07:14:11.316Z,983.66
2023-02-11T07:15:11.286Z,983.64
2023-02-11T07:16:11.367Z,983.64
2023-02-11T07:17:11.247Z,983.66
2023-02-11T07:18:14.296Z,983.59
2023-02-11T07:19:11.223Z,983.56
2023-02-11T07:20:11.213Z,983.52
2023-02-11T07:21:11.217Z,983.48
2023-02-11T07:22:11.167Z,983.50
2023-02-11T07:23:11.192Z,983.61
2023-02-11T07:24:11.531Z,983.52
2023-02-11T07:25:12.115Z,983.59
2023-02-11T07:26:11.101Z,983.61
2023-02-11T07:27:11.104Z,983.55
2023-02-11T07:28:11.248Z,983.68
2023-02-11T07:29:11.063Z,983.67
2023-02-11T07:30:11.045Z,983.70
2023-02-11T07:31:11.105Z,983.72
2023-02-11T07:32:11.062Z,983.71
2023-02-11T07:33:11.012Z,983.75
2023-02-11T07:34:11.001Z,983.80
2023-02-11T07:35:10.951Z,983.67
2023-02-11T07:36:10.925Z,983.76
2023-02-11T07:37:10.919Z,983.70
2023-02-11T07:38:10.929Z,983.84
2023-02-11T07:39:10.908Z,983.82
2023-02-11T07:40:10.867Z,983.81
2023-02-11T07:41:10.840Z,983.78
2023-02-11T07:42:10.913Z,983.81
2023-02-11T07:43:10.851Z,983.84
2023-02-11T07:44:10.776Z,983.80
2023-02-11T07:45:10.784Z,983.80
2023-02-11T07:46:10.797Z,983.77
2023-02-11T07:47:10.741Z,983.80
2023-02-11T07:48:10.788Z,983.90
2023-02-11T07:49:10.693Z,983.83
2023-02-11T07:50:10.702Z,983.86
2023-02-11T07:51:10.722Z,983.78
2023-02-11T07:52:10.658Z,983.83
2023-02-11T07:53:10.676Z,983.83
2023-02-11T07:54:10.621Z,983.85
2023-02-11T07:55:10.604Z,983.82
2023-02-11T07:56:10.612Z,983.87
2023-02-11T07:57:10.561Z,983.83
2023-02-11T07:58:10.574Z,983.81
2023-02-11T07:59:10.536Z,983.89
2023-02-11T08:00:10.517Z,983.95
2023-02-11T08:01:10.527Z,983.88
2023-02-11T08:02:10.571Z,983.88
2023-02-11T08:03:10.493Z,983.88
2023-02-11T08:04:10.456Z,983.95
2023-02-11T08:05:10.454Z,983.99
2023-02-11T08:06:10.437Z,984.02
2023-02-11T08:07:10.398Z,984.01
2023-02-11T08:08:10.413Z,983.98
2023-02-11T08:09:10.375Z,984.01
2023-02-11T08:10:10.336Z,984.05
2023-02-11T08:11:10.345Z,984.04
2023-02-11T08:12:10.301Z,984.07
2023-02-11T08:13:10.339Z,984.07
2023-02-11T08:14:10.267Z,984.10
2023-02-11T08:15:10.252Z,984.08
2023-02-11T08:16:10.258Z,984.10
2023-02-11T08:17:42.574Z,984.14
2023-02-11T08:18:10.207Z,984.16
2023-02-11T08:19:10.231Z,984.17
2023-02-11T08:20:10.192Z,984.18
2023-02-11T08:21:10.154Z,984.17
2023-02-11T08:22:10.148Z,984.17
2023-02-11T08:23:10.138Z,984.20
2023-02-11T08:24:10.160Z,984.21
2023-02-11T08:25:10.131Z,984.24
2023-02-11T08:26:10.072Z,984.29
2023-02-11T08:27:10.057Z,984.22
2023-02-11T08:28:10.097Z,984.27
2023-02-11T08:29:10.040Z,984.30
2023-02-11T08:30:09.993Z,984.30
2023-02-11T08:31:10.027Z,984.26
2023-02-11T08:32:10.066Z,984.22
2023-02-11T08:33:09.963Z,984.29
2023-02-11T08:34:09.975Z,984.39
2023-02-11T08:35:09.910Z,984.31
2023-02-11T08:36:09.916Z,984.32
2023-02-11T08:37:09.913Z,984.32
2023-02-11T08:38:09.872Z,984.30
2023-02-11T08:39:19.120Z,984.30
2023-02-11T08:40:11.853Z,984.30
2023-02-11T08:41:09.808Z,984.27
2023-02-11T08:42:09.820Z,984.22
2023-02-11T08:43:09.830Z,984.19
2023-02-11T08:44:09.775Z,984.17
2023-02-11T08:45:09.728Z,984.24
2023-02-11T08:46:09.790Z,984.18
2023-02-11T08:47:09.734Z,984.17
2023-02-11T08:48:09.705Z,984.16
2023-02-11T08:49:09.756Z,984.21
2023-02-11T08:50:09.652Z,984.21
2023-02-11T08:51:09.662Z,984.15
2023-02-11T08:52:09.645Z,984.21
2023-02-11T08:53:09.605Z,984.15
2023-02-11T08:54:09.631Z,984.18
2023-02-11T08:55:09.562Z,984.21
2023-02-11T08:56:11.169Z,984.25
2023-02-11T08:57:09.553Z,984.28
2023-02-11T08:58:09.543Z,984.25
2023-02-11T08:59:09.614Z,984.26
2023-02-11T09:00:09.472Z,984.22
2023-02-11T09:01:09.531Z,984.19
2023-02-11T09:02:09.504Z,984.24
2023-02-11T09:03:09.425Z,984.18
2023-02-11T09:04:09.458Z,984.21
2023-02-11T09:05:09.394Z,984.20
2023-02-11T09:06:09.371Z,984.22
2023-02-11T09:07:09.361Z,984.21
2023-02-11T09:08:09.340Z,984.21
2023-02-11T09:09:09.346Z,984.20
2023-02-11T09:10:09.323Z,984.23
2023-02-11T09:11:09.300Z,984.10
2023-02-11T09:12:09.262Z,984.07
2023-02-11T09:13:09.257Z,984.06
2023-02-11T09:14:09.257Z,984.11
2023-02-11T09:15:09.225Z,984.08
2023-02-11T09:16:09.207Z,984.15
2023-02-11T09:17:09.292Z,984.22
2023-02-11T09:18:09.234Z,984.24
2023-02-11T09:19:10.170Z,984.19
2023-02-11T09:20:10.764Z,984.25
2023-02-11T09:21:10.135Z,984.23
2023-02-11T09:22:09.097Z,984.25
2023-02-11T09:23:09.075Z,984.25
2023-02-11T09:24:09.092Z,984.26
2023-02-11T09:25:09.065Z,984.24
2023-02-11T09:26:09.572Z,984.25
2023-02-11T09:27:10.006Z,984.26
2023-02-11T09:28:09.032Z,984.30
2023-02-11T09:29:09.018Z,984.27
2023-02-11T09:30:08.956Z,984.24
2023-02-11T09:31:09.026Z,984.24
2023-02-11T09:32:10.014Z,984.22
2023-02-11T09:33:09.909Z,984.20
2023-02-11T09:34:08.925Z,984.28
2023-02-11T09:35:08.863Z,984.24
2023-02-11T09:36:08.933Z,984.27
2023-02-11T09:37:08.894Z,984.22
2023-02-11T09:38:08.831Z,984.24
2023-02-11T09:39:08.838Z,984.26
2023-02-11T09:40:08.823Z,984.28
2023-02-11T09:41:08.830Z,984.24
2023-02-11T09:42:08.770Z,984.23
2023-02-11T09:43:08.747Z,984.34
2023-02-11T09:44:08.767Z,984.31
2023-02-11T09:45:08.721Z,984.30
2023-02-11T09:46:08.740Z,984.33
2023-02-11T09:47:08.667Z,984.30
2023-02-11T09:48:08.658Z,984.29
2023-02-11T09:49:08.676Z,984.32
2023-02-11T09:50:08.626Z,984.29
2023-02-11T09:51:08.611Z,984.27
2023-02-11T09:52:08.590Z,984.21
2023-02-11T09:53:08.577Z,984.30
2023-02-11T09:54:08.594Z,984.28
2023-02-11T09:55:08.567Z,984.35
2023-02-11T09:56:08.560Z,984.25
2023-02-11T09:57:19.521Z,984.25
2023-02-11T09:58:10.481Z,984.25
2023-02-11T09:59:08.490Z,984.31
2023-02-11T10:00:08.454Z,984.23
2023-02-11T10:01:08.506Z,984.26
2023-02-11T10:02:08.420Z,984.26
2023-02-11T10:03:08.424Z,984.20
2023-02-11T10:04:08.461Z,984.21
2023-02-11T10:05:08.369Z,984.30
2023-02-11T10:06:08.358Z,984.31
2023-02-11T10:07:08.384Z,984.34
2023-02-11T10:08:08.306Z,984.26
2023-02-11T10:09:08.329Z,984.29
2023-02-11T10:10:08.278Z,984.28
2023-02-11T10:11:08.312Z,984.27
2023-02-11T10:12:08.261Z,984.33
2023-02-11T10:13:08.233Z,984.24
2023-02-11T10:14:08.254Z,984.23
2023-02-11T10:15:08.192Z,984.16
2023-02-11T10:16:08.252Z,984.17
2023-02-11T10:17:08.154Z,984.17
2023-02-11T10:18:08.145Z,984.14
2023-02-11T10:19:08.180Z,984.20
2023-02-11T10:20:08.122Z,984.25
2023-02-11T10:21:08.108Z,984.28
2023-02-11T10:22:08.117Z,984.25
2023-02-11T10:23:08.055Z,984.27
2023-02-11T10:24:08.098Z,984.33
2023-02-11T10:25:08.062Z,984.35
2023-02-11T10:26:08.011Z,984.29
2023-02-11T10:27:08.017Z,984.39
2023-02-11T10:28:08.053Z,984.37
2023-02-11T10:29:07.991Z,984.36
2023-02-11T10:30:07.937Z,984.38
2023-02-11T10:31:08.057Z,984.41
2023-02-11T10:32:07.941Z,984.39
2023-02-11T10:33:07.919Z,984.44
2023-02-11T10:34:07.912Z,984.45
2023-02-11T10:35:07.864Z,984.48
2023-02-11T10:36:07.852Z,984.48
2023-02-11T10:37:07.829Z,984.51
2023-02-11T10:38:07.837Z,984.49
2023-02-11T10:39:07.798Z,984.57
2023-02-11T10:40:07.820Z,984.56
2023-02-11T10:41:07.759Z,984.54
2023-02-11T10:42:07.739Z,984.58
2023-02-11T10:43:07.722Z,984.56
2023-02-11T10:44:07.697Z,984.61
2023-02-11T10:45:07.708Z,984.62
2023-02-11T10:46:07.691Z,984.63
2023-02-11T10:47:07.643Z,984.62
2023-02-11T10:48:07.640Z,984.71
2023-02-11T10:49:07.638Z,984.75
2023-02-11T10:50:07.638Z,984.73
2023-02-11T10:51:07.586Z,984.68
2023-02-11T10:52:07.595Z,984.71
2023-02-11T10:53:07.553Z,984.66
2023-02-11T10:54:07.540Z,984.68
2023-02-11T10:55:07.577Z,984.74
2023-02-11T10:56:07.515Z,984.75
2023-02-11T10:57:07.477Z,984.72
2023-02-11T10:58:07.462Z,984.72
2023-02-11T10:59:07.452Z,984.69
2023-02-11T11:00:07.487Z,984.70
2023-02-11T11:01:22.425Z,984.70
2023-02-11T11:02:09.432Z,984.69
2023-02-11T11:03:07.428Z,984.71
2023-02-11T11:04:07.361Z,984.72
2023-02-11T11:05:07.466Z,984.79
2023-02-11T11:06:07.327Z,984.81
2023-02-11T11:07:07.316Z,984.81
2023-02-11T11:08:07.290Z,984.76
2023-02-11T11:09:07.294Z,984.86
2023-02-11T11:10:07.303Z,984.82
2023-02-11T11:11:07.263Z,984.82
2023-02-11T11:12:07.220Z,984.83
2023-02-11T11:13:07.276Z,984.83
2023-02-11T11:14:07.186Z,984.85
2023-02-11T11:15:07.202Z,984.88
2023-02-11T11:16:07.178Z,984.85
2023-02-11T11:17:07.137Z,984.89
2023-02-11T11:18:20.529Z,984.84
2023-02-11T11:19:09.104Z,984.80
2023-02-11T11:20:07.109Z,984.89
2023-02-11T11:21:07.077Z,984.80
2023-02-11T11:22:07.061Z,984.86
2023-02-11T11:23:07.034Z,984.80
2023-02-11T11:24:07.033Z,984.79
2023-02-11T11:25:07.034Z,984.81
2023-02-11T11:26:06.989Z,984.83
2023-02-11T11:27:07.003Z,984.78
2023-02-11T11:28:07.031Z,984.73
2023-02-11T11:29:06.941Z,984.76
2023-02-11T11:30:06.981Z,984.74
2023-02-11T11:31:06.982Z,984.75
2023-02-11T11:32:06.990Z,984.76
2023-02-11T11:33:06.865Z,984.84
2023-02-11T11:34:06.868Z,984.79
2023-02-11T11:35:06.875Z,984.72
2023-02-11T11:36:06.811Z,984.78
2023-02-11T11:37:07.796Z,984.73
2023-02-11T11:38:06.780Z,984.72
2023-02-11T11:39:06.763Z,984.73
2023-02-11T11:40:06.772Z,984.68
2023-02-11T11:41:06.734Z,984.69
2023-02-11T11:42:06.712Z,984.63
2023-02-11T11:43:06.741Z,984.71
2023-02-11T11:44:06.668Z,984.69
2023-02-11T11:45:06.681Z,984.65
2023-02-11T11:46:06.629Z,984.71
2023-02-11T11:47:06.616Z,984.70
2023-02-11T11:48:06.604Z,984.70
2023-02-11T11:49:06.579Z,984.71
2023-02-11T11:50:06.627Z,984.72
2023-02-11T11:51:06.554Z,984.71
2023-02-11T11:52:06.532Z,984.69
2023-02-11T11:53:06.511Z,984.67
2023-02-11T11:54:06.525Z,984.73
2023-02-11T11:55:06.540Z,984.70
2023-02-11T11:56:06.463Z,984.67
2023-02-11T11:57:06.456Z,984.63
2023-02-11T11:58:06.426Z,984.61
2023-02-11T11:59:06.414Z,984.65
2023-02-11T12:00:06.413Z,984.52
2023-02-11T12:01:06.375Z,984.59
2023-02-11T12:02:08.534Z,984.62
2023-02-11T12:03:07.393Z,984.61
2023-02-11T12:04:06.348Z,984.53
2023-02-11T12:05:06.335Z,984.68
2023-02-11T12:06:06.286Z,984.63
2023-02-11T12:07:06.274Z,984.60
2023-02-11T12:08:06.257Z,984.70
2023-02-11T12:09:06.246Z,984.61
2023-02-11T12:10:06.258Z,984.66
2023-02-11T12:11:06.199Z,984.69
2023-02-11T12:12:06.201Z,984.72
2023-02-11T12:13:06.188Z,984.63
2023-02-11T12:14:06.147Z,984.69
2023-02-11T12:15:06.186Z,984.64
2023-02-11T12:16:06.166Z,984.65
2023-02-11T12:17:06.096Z,984.62
2023-02-11T12:18:06.088Z,984.59
2023-02-11T12:19:06.069Z,984.53
2023-02-11T12:20:06.092Z,984.61
2023-02-11T12:21:06.040Z,984.57
2023-02-11T12:22:06.013Z,984.54
2023-02-11T12:23:06.001Z,984.59
2023-02-11T12:24:05.978Z,984.55
2023-02-11T12:25:06.004Z,984.57
2023-02-11T12:26:05.959Z,984.65
2023-02-11T12:27:05.924Z,984.59
2023-02-11T12:28:05.949Z,984.54